sensor_id;sensor_type;location;lat;lon;timestamp;P1;durP1;ratioP1;P2;durP2;ratioP2
65656;SDS011;57397;50.096;14.404;2023-02-01T00:01:25;1.98;;;1.17;;
65656;SDS011;57397;50.096;14.404;2023-02-01T00:03:51;1.90;;;1.00;;
65656;SDS011;57397;50.096;14.404;2023-02-01T00:06:16;1.33;;;1.10;;
65656;SDS011;57397;50.096;14.404;2023-02-01T00:08:42;2.05;;;1.30;;
65656;SDS011;57397;50.096;14.404;2023-02-01T00:11:08;1.88;;;1.35;;
65656;SDS011;57397;50.096;14.404;2023-02-01T00:13:36;1.65;;;1.17;;
65656;SDS011;57397;50.096;14.404;2023-02-01T00:16:07;1.70;;;0.95;;
65656;SDS011;57397;50.096;14.404;2023-02-01T00:18:43;2.22;;;1.27;;
65656;SDS011;57397;50.096;14.404;2023-02-01T00:21:13;2.00;;;1.30;;
65656;SDS011;57397;50.096;14.404;2023-02-01T00:23:40;1.65;;;1.30;;
65656;SDS011;57397;50.096;14.404;2023-02-01T00:26:06;2.10;;;1.08;;
65656;SDS011;57397;50.096;14.404;2023-02-01T00:28:36;1.73;;;1.25;;
65656;SDS011;57397;50.096;14.404;2023-02-01T00:31:02;2.00;;;1.30;;
65656;SDS011;57397;50.096;14.404;2023-02-01T00:33:29;1.90;;;1.00;;
65656;SDS011;57397;50.096;14.404;2023-02-01T00:35:58;1.92;;;1.25;;
65656;SDS011;57397;50.096;14.404;2023-02-01T00:38:28;1.50;;;1.17;;
65656;SDS011;57397;50.096;14.404;2023-02-01T00:40:54;2.03;;;1.20;;
65656;SDS011;57397;50.096;14.404;2023-02-01T00:43:26;1.70;;;1.23;;
65656;SDS011;57397;50.096;14.404;2023-02-01T00:45:51;3.67;;;1.23;;
65656;SDS011;57397;50.096;14.404;2023-02-01T00:48:17;2.28;;;1.02;;
65656;SDS011;57397;50.096;14.404;2023-02-01T00:50:42;1.73;;;1.10;;
65656;SDS011;57397;50.096;14.404;2023-02-01T00:53:09;2.08;;;1.30;;
65656;SDS011;57397;50.096;14.404;2023-02-01T00:55:35;1.75;;;1.17;;
65656;SDS011;57397;50.096;14.404;2023-02-01T00:58:00;1.48;;;1.02;;
65656;SDS011;57397;50.096;14.404;2023-02-01T01:00:26;2.35;;;1.25;;
65656;SDS011;57397;50.096;14.404;2023-02-01T01:02:51;1.73;;;1.05;;
65656;SDS011;57397;50.096;14.404;2023-02-01T01:05:17;1.40;;;1.10;;
65656;SDS011;57397;50.096;14.404;2023-02-01T01:07:42;2.13;;;1.00;;
65656;SDS011;57397;50.096;14.404;2023-02-01T01:10:08;1.80;;;1.20;;
65656;SDS011;57397;50.096;14.404;2023-02-01T01:12:34;1.98;;;1.10;;
65656;SDS011;57397;50.096;14.404;2023-02-01T01:14:59;1.48;;;1.00;;
65656;SDS011;57397;50.096;14.404;2023-02-01T01:17:25;2.65;;;1.20;;
65656;SDS011;57397;50.096;14.404;2023-02-01T01:19:50;1.40;;;1.10;;
65656;SDS011;57397;50.096;14.404;2023-02-01T01:22:16;1.40;;;1.00;;
65656;SDS011;57397;50.096;14.404;2023-02-01T01:24:41;2.35;;;1.38;;
65656;SDS011;57397;50.096;14.404;2023-02-01T01:27:07;1.35;;;1.05;;
65656;SDS011;57397;50.096;14.404;2023-02-01T01:29:32;1.60;;;1.10;;
65656;SDS011;57397;50.096;14.404;2023-02-01T01:31:57;1.48;;;1.10;;
65656;SDS011;57397;50.096;14.404;2023-02-01T01:34:23;1.50;;;1.10;;
65656;SDS011;57397;50.096;14.404;2023-02-01T01:36:48;3.17;;;1.30;;
65656;SDS011;57397;50.096;14.404;2023-02-01T01:39:14;2.00;;;1.15;;
65656;SDS011;57397;50.096;14.404;2023-02-01T01:41:39;2.08;;;1.00;;
65656;SDS011;57397;50.096;14.404;2023-02-01T01:44:05;2.13;;;1.10;;
65656;SDS011;57397;50.096;14.404;2023-02-01T01:46:34;1.80;;;1.10;;
65656;SDS011;57397;50.096;14.404;2023-02-01T01:49:11;1.67;;;1.10;;
65656;SDS011;57397;50.096;14.404;2023-02-01T01:51:46;2.25;;;1.30;;
65656;SDS011;57397;50.096;14.404;2023-02-01T01:54:18;1.75;;;1.00;;
65656;SDS011;57397;50.096;14.404;2023-02-01T01:56:48;1.30;;;1.00;;
65656;SDS011;57397;50.096;14.404;2023-02-01T01:59:16;2.30;;;1.42;;
65656;SDS011;57397;50.096;14.404;2023-02-01T02:01:42;2.05;;;1.15;;
65656;SDS011;57397;50.096;14.404;2023-02-01T02:04:07;2.35;;;1.40;;
65656;SDS011;57397;50.096;14.404;2023-02-01T02:06:43;2.42;;;1.20;;
65656;SDS011;57397;50.096;14.404;2023-02-01T02:09:13;1.88;;;1.20;;
65656;SDS011;57397;50.096;14.404;2023-02-01T02:11:39;2.33;;;1.30;;
65656;SDS011;57397;50.096;14.404;2023-02-01T02:14:05;2.45;;;1.40;;
65656;SDS011;57397;50.096;14.404;2023-02-01T02:27:43;1.75;;;1.10;;
65656;SDS011;57397;50.096;14.404;2023-02-01T02:30:23;1.60;;;1.20;;
65656;SDS011;57397;50.096;14.404;2023-02-01T02:43:46;1.17;;;0.90;;
65656;SDS011;57397;50.096;14.404;2023-02-01T02:49:34;1.45;;;1.00;;
65656;SDS011;57397;50.096;14.404;2023-02-01T02:52:03;2.95;;;1.20;;
65656;SDS011;57397;50.096;14.404;2023-02-01T02:55:05;1.85;;;1.10;;
65656;SDS011;57397;50.096;14.404;2023-02-01T02:57:37;1.90;;;1.02;;
65656;SDS011;57397;50.096;14.404;2023-02-01T03:00:24;2.05;;;1.40;;
65656;SDS011;57397;50.096;14.404;2023-02-01T03:03:11;2.67;;;1.10;;
65656;SDS011;57397;50.096;14.404;2023-02-01T03:05:56;1.15;;;0.90;;
65656;SDS011;57397;50.096;14.404;2023-02-01T03:08:28;2.03;;;1.10;;
65656;SDS011;57397;50.096;14.404;2023-02-01T03:13:47;2.65;;;1.00;;
65656;SDS011;57397;50.096;14.404;2023-02-01T03:16:24;3.17;;;1.33;;
65656;SDS011;57397;50.096;14.404;2023-02-01T03:18:59;1.30;;;1.02;;
65656;SDS011;57397;50.096;14.404;2023-02-01T03:21:31;1.42;;;0.98;;
65656;SDS011;57397;50.096;14.404;2023-02-01T03:24:05;1.40;;;1.00;;
65656;SDS011;57397;50.096;14.404;2023-02-01T03:26:34;1.65;;;0.95;;
65656;SDS011;57397;50.096;14.404;2023-02-01T03:29:14;1.73;;;0.90;;
65656;SDS011;57397;50.096;14.404;2023-02-01T03:31:45;2.33;;;1.17;;
65656;SDS011;57397;50.096;14.404;2023-02-01T03:34:11;1.73;;;1.10;;
65656;SDS011;57397;50.096;14.404;2023-02-01T03:36:42;1.42;;;0.93;;
65656;SDS011;57397;50.096;14.404;2023-02-01T03:39:18;1.63;;;0.90;;
65656;SDS011;57397;50.096;14.404;2023-02-01T03:41:56;1.58;;;1.00;;
65656;SDS011;57397;50.096;14.404;2023-02-01T03:49:44;1.38;;;0.80;;
65656;SDS011;57397;50.096;14.404;2023-02-01T03:52:24;1.52;;;0.80;;
65656;SDS011;57397;50.096;14.404;2023-02-01T03:54:57;1.42;;;0.90;;
65656;SDS011;57397;50.096;14.404;2023-02-01T03:57:26;1.70;;;0.90;;
65656;SDS011;57397;50.096;14.404;2023-02-01T04:00:04;1.58;;;1.17;;
65656;SDS011;57397;50.096;14.404;2023-02-01T04:02:47;1.38;;;0.90;;
65656;SDS011;57397;50.096;14.404;2023-02-01T04:05:13;1.25;;;0.80;;
65656;SDS011;57397;50.096;14.404;2023-02-01T04:07:38;1.35;;;0.80;;
65656;SDS011;57397;50.096;14.404;2023-02-01T04:10:04;1.20;;;0.80;;
65656;SDS011;57397;50.096;14.404;2023-02-01T04:12:30;1.30;;;0.85;;
65656;SDS011;57397;50.096;14.404;2023-02-01T04:14:55;1.55;;;0.90;;
65656;SDS011;57397;50.096;14.404;2023-02-01T04:17:21;1.50;;;0.80;;
65656;SDS011;57397;50.096;14.404;2023-02-01T04:19:46;1.40;;;0.90;;
65656;SDS011;57397;50.096;14.404;2023-02-01T04:22:12;1.23;;;0.80;;
65656;SDS011;57397;50.096;14.404;2023-02-01T04:24:38;0.93;;;0.77;;
65656;SDS011;57397;50.096;14.404;2023-02-01T04:27:03;1.10;;;0.88;;
65656;SDS011;57397;50.096;14.404;2023-02-01T04:29:29;2.00;;;1.00;;
65656;SDS011;57397;50.096;14.404;2023-02-01T04:31:54;1.77;;;1.00;;
65656;SDS011;57397;50.096;14.404;2023-02-01T04:34:20;1.20;;;0.80;;
65656;SDS011;57397;50.096;14.404;2023-02-01T04:36:47;1.58;;;0.90;;
65656;SDS011;57397;50.096;14.404;2023-02-01T04:39:13;1.50;;;0.98;;
65656;SDS011;57397;50.096;14.404;2023-02-01T04:41:39;1.10;;;0.80;;
65656;SDS011;57397;50.096;14.404;2023-02-01T04:44:04;1.45;;;0.93;;
65656;SDS011;57397;50.096;14.404;2023-02-01T04:46:30;2.10;;;1.10;;
65656;SDS011;57397;50.096;14.404;2023-02-01T04:48:55;1.95;;;1.15;;
65656;SDS011;57397;50.096;14.404;2023-02-01T04:51:21;2.15;;;1.00;;
65656;SDS011;57397;50.096;14.404;2023-02-01T04:53:47;1.88;;;1.02;;
65656;SDS011;57397;50.096;14.404;2023-02-01T04:56:12;1.17;;;1.02;;
65656;SDS011;57397;50.096;14.404;2023-02-01T04:58:38;1.67;;;1.15;;
65656;SDS011;57397;50.096;14.404;2023-02-01T05:01:04;2.05;;;1.10;;
65656;SDS011;57397;50.096;14.404;2023-02-01T05:03:34;2.15;;;1.10;;
65656;SDS011;57397;50.096;14.404;2023-02-01T05:06:00;2.08;;;0.90;;
65656;SDS011;57397;50.096;14.404;2023-02-01T05:08:26;1.70;;;1.10;;
65656;SDS011;57397;50.096;14.404;2023-02-01T05:10:52;2.03;;;1.20;;
65656;SDS011;57397;50.096;14.404;2023-02-01T05:13:17;2.63;;;1.40;;
65656;SDS011;57397;50.096;14.404;2023-02-01T05:16:02;1.70;;;1.08;;
65656;SDS011;57397;50.096;14.404;2023-02-01T05:18:27;1.38;;;1.00;;
65656;SDS011;57397;50.096;14.404;2023-02-01T05:20:53;2.38;;;1.05;;
65656;SDS011;57397;50.096;14.404;2023-02-01T05:23:18;2.20;;;1.20;;
65656;SDS011;57397;50.096;14.404;2023-02-01T05:25:44;1.13;;;0.90;;
65656;SDS011;57397;50.096;14.404;2023-02-01T05:28:09;1.98;;;1.00;;
65656;SDS011;57397;50.096;14.404;2023-02-01T05:30:35;1.50;;;1.10;;
65656;SDS011;57397;50.096;14.404;2023-02-01T05:33:01;1.73;;;1.10;;
65656;SDS011;57397;50.096;14.404;2023-02-01T05:35:27;2.47;;;1.20;;
65656;SDS011;57397;50.096;14.404;2023-02-01T05:37:52;1.70;;;1.27;;
65656;SDS011;57397;50.096;14.404;2023-02-01T05:40:18;1.98;;;1.40;;
65656;SDS011;57397;50.096;14.404;2023-02-01T05:42:43;2.17;;;1.17;;
65656;SDS011;57397;50.096;14.404;2023-02-01T05:45:09;2.05;;;1.50;;
65656;SDS011;57397;50.096;14.404;2023-02-01T05:47:35;1.63;;;1.20;;
65656;SDS011;57397;50.096;14.404;2023-02-01T05:50:00;2.83;;;1.58;;
65656;SDS011;57397;50.096;14.404;2023-02-01T05:52:26;2.25;;;1.48;;
65656;SDS011;57397;50.096;14.404;2023-02-01T05:54:52;1.60;;;1.30;;
65656;SDS011;57397;50.096;14.404;2023-02-01T05:57:18;3.38;;;1.52;;
65656;SDS011;57397;50.096;14.404;2023-02-01T05:59:43;2.72;;;1.30;;
65656;SDS011;57397;50.096;14.404;2023-02-01T06:02:12;2.17;;;1.42;;
65656;SDS011;57397;50.096;14.404;2023-02-01T06:04:38;2.80;;;1.40;;
65656;SDS011;57397;50.096;14.404;2023-02-01T06:07:04;2.15;;;1.33;;
65656;SDS011;57397;50.096;14.404;2023-02-01T06:09:32;2.05;;;1.38;;
65656;SDS011;57397;50.096;14.404;2023-02-01T06:11:57;2.25;;;1.40;;
65656;SDS011;57397;50.096;14.404;2023-02-01T06:14:23;2.17;;;1.30;;
65656;SDS011;57397;50.096;14.404;2023-02-01T06:16:49;2.03;;;1.30;;
65656;SDS011;57397;50.096;14.404;2023-02-01T06:19:15;2.75;;;1.42;;
65656;SDS011;57397;50.096;14.404;2023-02-01T06:21:40;2.45;;;1.40;;
65656;SDS011;57397;50.096;14.404;2023-02-01T06:24:06;1.80;;;1.20;;
65656;SDS011;57397;50.096;14.404;2023-02-01T06:26:31;2.60;;;1.30;;
65656;SDS011;57397;50.096;14.404;2023-02-01T06:28:57;2.55;;;1.25;;
65656;SDS011;57397;50.096;14.404;2023-02-01T06:31:23;2.15;;;1.30;;
65656;SDS011;57397;50.096;14.404;2023-02-01T06:33:50;2.15;;;1.40;;
65656;SDS011;57397;50.096;14.404;2023-02-01T06:36:16;2.40;;;1.38;;
65656;SDS011;57397;50.096;14.404;2023-02-01T06:38:43;1.80;;;1.25;;
65656;SDS011;57397;50.096;14.404;2023-02-01T06:41:08;2.08;;;1.40;;
65656;SDS011;57397;50.096;14.404;2023-02-01T06:43:34;2.50;;;1.40;;
65656;SDS011;57397;50.096;14.404;2023-02-01T06:46:00;2.83;;;1.30;;
65656;SDS011;57397;50.096;14.404;2023-02-01T06:48:27;3.60;;;1.40;;
65656;SDS011;57397;50.096;14.404;2023-02-01T06:50:53;2.20;;;1.48;;
65656;SDS011;57397;50.096;14.404;2023-02-01T06:53:18;2.83;;;1.38;;
65656;SDS011;57397;50.096;14.404;2023-02-01T06:55:57;2.10;;;1.30;;
65656;SDS011;57397;50.096;14.404;2023-02-01T06:58:24;2.50;;;1.55;;
65656;SDS011;57397;50.096;14.404;2023-02-01T07:00:54;2.60;;;1.40;;
65656;SDS011;57397;50.096;14.404;2023-02-01T07:03:19;2.22;;;1.23;;
65656;SDS011;57397;50.096;14.404;2023-02-01T07:05:44;2.28;;;1.40;;
65656;SDS011;57397;50.096;14.404;2023-02-01T07:08:10;2.17;;;1.20;;
65656;SDS011;57397;50.096;14.404;2023-02-01T07:10:36;1.60;;;1.20;;
65656;SDS011;57397;50.096;14.404;2023-02-01T07:13:02;2.72;;;1.52;;
65656;SDS011;57397;50.096;14.404;2023-02-01T07:15:27;2.17;;;1.35;;
65656;SDS011;57397;50.096;14.404;2023-02-01T07:17:56;2.40;;;1.50;;
65656;SDS011;57397;50.096;14.404;2023-02-01T07:20:21;2.42;;;1.70;;
65656;SDS011;57397;50.096;14.404;2023-02-01T07:22:47;2.95;;;1.50;;
65656;SDS011;57397;50.096;14.404;2023-02-01T07:25:12;2.10;;;1.33;;
65656;SDS011;57397;50.096;14.404;2023-02-01T07:27:38;2.50;;;1.40;;
65656;SDS011;57397;50.096;14.404;2023-02-01T07:30:04;2.47;;;1.60;;
65656;SDS011;57397;50.096;14.404;2023-02-01T07:32:30;2.10;;;1.38;;
65656;SDS011;57397;50.096;14.404;2023-02-01T07:34:56;2.75;;;1.50;;
65656;SDS011;57397;50.096;14.404;2023-02-01T07:37:23;3.47;;;1.73;;
65656;SDS011;57397;50.096;14.404;2023-02-01T07:39:49;2.97;;;1.58;;
65656;SDS011;57397;50.096;14.404;2023-02-01T07:42:18;2.05;;;1.38;;
65656;SDS011;57397;50.096;14.404;2023-02-01T07:44:43;3.38;;;1.73;;
65656;SDS011;57397;50.096;14.404;2023-02-01T07:47:09;2.40;;;1.50;;
65656;SDS011;57397;50.096;14.404;2023-02-01T07:49:34;2.28;;;1.40;;
65656;SDS011;57397;50.096;14.404;2023-02-01T07:52:00;2.63;;;1.50;;
65656;SDS011;57397;50.096;14.404;2023-02-01T07:54:29;2.10;;;1.35;;
65656;SDS011;57397;50.096;14.404;2023-02-01T07:56:55;3.35;;;1.60;;
65656;SDS011;57397;50.096;14.404;2023-02-01T07:59:21;2.38;;;1.40;;
65656;SDS011;57397;50.096;14.404;2023-02-01T08:01:47;2.10;;;1.35;;
65656;SDS011;57397;50.096;14.404;2023-02-01T08:04:12;3.22;;;1.60;;
65656;SDS011;57397;50.096;14.404;2023-02-01T08:06:38;2.10;;;1.50;;
65656;SDS011;57397;50.096;14.404;2023-02-01T08:09:04;2.70;;;1.70;;
65656;SDS011;57397;50.096;14.404;2023-02-01T08:11:31;2.78;;;1.67;;
65656;SDS011;57397;50.096;14.404;2023-02-01T08:13:57;2.58;;;1.40;;
65656;SDS011;57397;50.096;14.404;2023-02-01T08:16:23;2.25;;;1.50;;
65656;SDS011;57397;50.096;14.404;2023-02-01T08:18:49;3.08;;;1.60;;
65656;SDS011;57397;50.096;14.404;2023-02-01T08:21:19;2.20;;;1.38;;
65656;SDS011;57397;50.096;14.404;2023-02-01T08:23:47;2.53;;;1.50;;
65656;SDS011;57397;50.096;14.404;2023-02-01T08:26:14;2.25;;;1.30;;
65656;SDS011;57397;50.096;14.404;2023-02-01T08:28:47;1.88;;;1.30;;
65656;SDS011;57397;50.096;14.404;2023-02-01T08:31:15;2.72;;;1.52;;
65656;SDS011;57397;50.096;14.404;2023-02-01T08:33:43;2.42;;;1.45;;
65656;SDS011;57397;50.096;14.404;2023-02-01T08:36:13;1.67;;;1.20;;
65656;SDS011;57397;50.096;14.404;2023-02-01T08:38:39;2.90;;;1.30;;
65656;SDS011;57397;50.096;14.404;2023-02-01T08:41:09;2.15;;;1.23;;
65656;SDS011;57397;50.096;14.404;2023-02-01T08:43:36;1.80;;;1.40;;
65656;SDS011;57397;50.096;14.404;2023-02-01T08:46:02;2.03;;;1.20;;
65656;SDS011;57397;50.096;14.404;2023-02-01T08:48:28;2.25;;;1.30;;
65656;SDS011;57397;50.096;14.404;2023-02-01T08:50:54;3.13;;;1.20;;
65656;SDS011;57397;50.096;14.404;2023-02-01T08:53:19;3.63;;;1.40;;
65656;SDS011;57397;50.096;14.404;2023-02-01T08:55:48;1.83;;;1.10;;
65656;SDS011;57397;50.096;14.404;2023-02-01T08:58:14;2.92;;;1.42;;
65656;SDS011;57397;50.096;14.404;2023-02-01T09:00:41;2.38;;;1.40;;
65656;SDS011;57397;50.096;14.404;2023-02-01T09:03:09;2.65;;;1.40;;
65656;SDS011;57397;50.096;14.404;2023-02-01T09:05:36;2.35;;;1.20;;
65656;SDS011;57397;50.096;14.404;2023-02-01T09:08:01;2.15;;;1.35;;
65656;SDS011;57397;50.096;14.404;2023-02-01T09:10:27;1.92;;;1.17;;
65656;SDS011;57397;50.096;14.404;2023-02-01T09:12:52;1.85;;;1.17;;
65656;SDS011;57397;50.096;14.404;2023-02-01T09:15:18;1.80;;;1.10;;
65656;SDS011;57397;50.096;14.404;2023-02-01T09:17:43;2.13;;;1.20;;
65656;SDS011;57397;50.096;14.404;2023-02-01T09:20:09;2.75;;;1.20;;
65656;SDS011;57397;50.096;14.404;2023-02-01T09:22:35;2.25;;;1.23;;
65656;SDS011;57397;50.096;14.404;2023-02-01T09:25:01;2.50;;;1.30;;
65656;SDS011;57397;50.096;14.404;2023-02-01T09:27:26;1.70;;;1.25;;
65656;SDS011;57397;50.096;14.404;2023-02-01T09:29:52;2.47;;;1.42;;
65656;SDS011;57397;50.096;14.404;2023-02-01T09:32:20;1.75;;;1.30;;
65656;SDS011;57397;50.096;14.404;2023-02-01T09:34:47;2.53;;;1.42;;
65656;SDS011;57397;50.096;14.404;2023-02-01T09:37:12;2.45;;;1.20;;
65656;SDS011;57397;50.096;14.404;2023-02-01T09:39:38;3.13;;;1.20;;
65656;SDS011;57397;50.096;14.404;2023-02-01T09:46:58;2.95;;;1.48;;
65656;SDS011;57397;50.096;14.404;2023-02-01T09:49:29;3.08;;;1.35;;
65656;SDS011;57397;50.096;14.404;2023-02-01T09:51:56;2.13;;;1.20;;
65656;SDS011;57397;50.096;14.404;2023-02-01T09:54:26;3.05;;;1.27;;
65656;SDS011;57397;50.096;14.404;2023-02-01T10:02:11;1.73;;;1.02;;
65656;SDS011;57397;50.096;14.404;2023-02-01T10:04:38;2.65;;;1.30;;
65656;SDS011;57397;50.096;14.404;2023-02-01T10:15:24;1.98;;;1.17;;
65656;SDS011;57397;50.096;14.404;2023-02-01T10:18:03;2.08;;;1.40;;
65656;SDS011;57397;50.096;14.404;2023-02-01T10:25:44;3.03;;;1.30;;
65656;SDS011;57397;50.096;14.404;2023-02-01T10:28:33;1.88;;;1.15;;
65656;SDS011;57397;50.096;14.404;2023-02-01T10:30:59;2.70;;;1.20;;
65656;SDS011;57397;50.096;14.404;2023-02-01T10:36:16;3.03;;;1.20;;
65656;SDS011;57397;50.096;14.404;2023-02-01T10:38:46;1.80;;;1.20;;
65656;SDS011;57397;50.096;14.404;2023-02-01T10:41:15;3.67;;;1.30;;
65656;SDS011;57397;50.096;14.404;2023-02-01T10:43:43;2.75;;;1.23;;
65656;SDS011;57397;50.096;14.404;2023-02-01T10:46:10;2.53;;;1.38;;
65656;SDS011;57397;50.096;14.404;2023-02-01T10:48:36;3.42;;;1.45;;
65656;SDS011;57397;50.096;14.404;2023-02-01T10:51:06;3.10;;;1.20;;
65656;SDS011;57397;50.096;14.404;2023-02-01T10:53:44;2.38;;;1.30;;
65656;SDS011;57397;50.096;14.404;2023-02-01T10:56:13;3.00;;;1.42;;
65656;SDS011;57397;50.096;14.404;2023-02-01T10:58:43;2.78;;;1.35;;
65656;SDS011;57397;50.096;14.404;2023-02-01T11:01:34;2.20;;;1.30;;
65656;SDS011;57397;50.096;14.404;2023-02-01T11:03:59;2.63;;;1.10;;
65656;SDS011;57397;50.096;14.404;2023-02-01T11:06:33;3.53;;;1.42;;
65656;SDS011;57397;50.096;14.404;2023-02-01T11:09:09;2.58;;;1.20;;
65656;SDS011;57397;50.096;14.404;2023-02-01T11:16:54;2.55;;;1.30;;
65656;SDS011;57397;50.096;14.404;2023-02-01T11:19:24;2.15;;;1.35;;
65656;SDS011;57397;50.096;14.404;2023-02-01T11:21:50;2.40;;;1.20;;
65656;SDS011;57397;50.096;14.404;2023-02-01T11:24:27;2.90;;;1.27;;
65656;SDS011;57397;50.096;14.404;2023-02-01T11:26:59;2.13;;;1.00;;
65656;SDS011;57397;50.096;14.404;2023-02-01T11:29:33;1.63;;;1.08;;
65656;SDS011;57397;50.096;14.404;2023-02-01T11:39:53;2.25;;;1.27;;
65656;SDS011;57397;50.096;14.404;2023-02-01T11:44:46;1.85;;;1.00;;
65656;SDS011;57397;50.096;14.404;2023-02-01T11:50:03;2.38;;;1.15;;
65656;SDS011;57397;50.096;14.404;2023-02-01T12:01:10;2.17;;;1.10;;
65656;SDS011;57397;50.096;14.404;2023-02-01T12:03:27;2.88;;;1.20;;
65656;SDS011;57397;50.096;14.404;2023-02-01T12:09:07;2.40;;;1.00;;
65656;SDS011;57397;50.096;14.404;2023-02-01T12:14:46;2.88;;;1.25;;
65656;SDS011;57397;50.096;14.404;2023-02-01T12:20:18;2.17;;;1.02;;
65656;SDS011;57397;50.096;14.404;2023-02-01T12:25:42;2.55;;;1.02;;
65656;SDS011;57397;50.096;14.404;2023-02-01T12:42:30;1.73;;;0.93;;
65656;SDS011;57397;50.096;14.404;2023-02-01T12:48:25;2.10;;;1.20;;
65656;SDS011;57397;50.096;14.404;2023-02-01T12:50:28;1.75;;;1.10;;
65656;SDS011;57397;50.096;14.404;2023-02-01T12:53:09;2.88;;;1.10;;
65656;SDS011;57397;50.096;14.404;2023-02-01T12:55:45;1.58;;;1.00;;
65656;SDS011;57397;50.096;14.404;2023-02-01T12:58:23;1.73;;;1.10;;
65656;SDS011;57397;50.096;14.404;2023-02-01T13:00:54;1.92;;;1.17;;
65656;SDS011;57397;50.096;14.404;2023-02-01T13:03:32;2.33;;;0.98;;
65656;SDS011;57397;50.096;14.404;2023-02-01T13:06:06;2.45;;;1.10;;
65656;SDS011;57397;50.096;14.404;2023-02-01T13:08:41;2.28;;;1.00;;
65656;SDS011;57397;50.096;14.404;2023-02-01T13:11:18;2.20;;;1.00;;
65656;SDS011;57397;50.096;14.404;2023-02-01T13:13:51;2.25;;;1.17;;
65656;SDS011;57397;50.096;14.404;2023-02-01T13:16:25;2.85;;;1.10;;
65656;SDS011;57397;50.096;14.404;2023-02-01T13:18:55;2.63;;;1.15;;
65656;SDS011;57397;50.096;14.404;2023-02-01T13:21:26;2.35;;;1.27;;
65656;SDS011;57397;50.096;14.404;2023-02-01T13:23:55;2.70;;;1.20;;
65656;SDS011;57397;50.096;14.404;2023-02-01T13:26:21;3.20;;;1.10;;
65656;SDS011;57397;50.096;14.404;2023-02-01T13:29:00;1.88;;;1.05;;
65656;SDS011;57397;50.096;14.404;2023-02-01T13:31:51;1.80;;;1.00;;
65656;SDS011;57397;50.096;14.404;2023-02-01T13:39:52;1.80;;;1.05;;
65656;SDS011;57397;50.096;14.404;2023-02-01T13:42:27;3.20;;;1.30;;
65656;SDS011;57397;50.096;14.404;2023-02-01T13:44:56;2.15;;;0.90;;
65656;SDS011;57397;50.096;14.404;2023-02-01T13:47:30;2.63;;;1.10;;
65656;SDS011;57397;50.096;14.404;2023-02-01T13:49:58;2.42;;;1.05;;
65656;SDS011;57397;50.096;14.404;2023-02-01T13:57:47;2.55;;;1.30;;
65656;SDS011;57397;50.096;14.404;2023-02-01T14:00:27;3.13;;;1.20;;
65656;SDS011;57397;50.096;14.404;2023-02-01T14:13:13;2.70;;;1.20;;
65656;SDS011;57397;50.096;14.404;2023-02-01T14:23:57;1.83;;;1.20;;
65656;SDS011;57397;50.096;14.404;2023-02-01T14:26:24;2.67;;;1.25;;
65656;SDS011;57397;50.096;14.404;2023-02-01T14:37:01;3.45;;;1.70;;
65656;SDS011;57397;50.096;14.404;2023-02-01T14:39:48;2.75;;;1.50;;
65656;SDS011;57397;50.096;14.404;2023-02-01T14:53:20;3.22;;;1.88;;
65656;SDS011;57397;50.096;14.404;2023-02-01T14:55:38;3.25;;;1.50;;
65656;SDS011;57397;50.096;14.404;2023-02-01T15:01:15;3.38;;;1.40;;
65656;SDS011;57397;50.096;14.404;2023-02-01T15:06:16;2.92;;;1.60;;
65656;SDS011;57397;50.096;14.404;2023-02-01T15:09:17;4.10;;;1.70;;
65656;SDS011;57397;50.096;14.404;2023-02-01T15:11:59;4.55;;;1.88;;
65656;SDS011;57397;50.096;14.404;2023-02-01T15:15:16;4.55;;;1.77;;
65656;SDS011;57397;50.096;14.404;2023-02-01T15:17:32;3.67;;;1.80;;
65656;SDS011;57397;50.096;14.404;2023-02-01T15:20:44;2.88;;;1.70;;
65656;SDS011;57397;50.096;14.404;2023-02-01T15:22:52;3.95;;;1.55;;
65656;SDS011;57397;50.096;14.404;2023-02-01T15:25:30;3.67;;;1.63;;
65656;SDS011;57397;50.096;14.404;2023-02-01T15:27:57;4.47;;;2.00;;
65656;SDS011;57397;50.096;14.404;2023-02-01T15:30:24;2.97;;;1.73;;
65656;SDS011;57397;50.096;14.404;2023-02-01T15:35:46;4.38;;;1.80;;
65656;SDS011;57397;50.096;14.404;2023-02-01T15:40:54;3.22;;;1.48;;
65656;SDS011;57397;50.096;14.404;2023-02-01T15:43:22;2.85;;;1.33;;
65656;SDS011;57397;50.096;14.404;2023-02-01T15:45:47;3.10;;;1.50;;
65656;SDS011;57397;50.096;14.404;2023-02-01T15:48:18;4.65;;;1.60;;
65656;SDS011;57397;50.096;14.404;2023-02-01T15:50:46;3.97;;;1.60;;
65656;SDS011;57397;50.096;14.404;2023-02-01T15:53:19;3.05;;;1.60;;
65656;SDS011;57397;50.096;14.404;2023-02-01T15:55:47;2.78;;;1.27;;
65656;SDS011;57397;50.096;14.404;2023-02-01T15:58:18;3.63;;;1.70;;
65656;SDS011;57397;50.096;14.404;2023-02-01T16:00:53;3.20;;;1.70;;
65656;SDS011;57397;50.096;14.404;2023-02-01T16:05:58;3.08;;;1.60;;
65656;SDS011;57397;50.096;14.404;2023-02-01T16:08:26;5.13;;;1.90;;
65656;SDS011;57397;50.096;14.404;2023-02-01T16:10:54;2.95;;;1.60;;
65656;SDS011;57397;50.096;14.404;2023-02-01T16:13:26;3.42;;;1.60;;
65656;SDS011;57397;50.096;14.404;2023-02-01T16:15:52;4.68;;;1.90;;
65656;SDS011;57397;50.096;14.404;2023-02-01T16:18:17;3.53;;;1.80;;
65656;SDS011;57397;50.096;14.404;2023-02-01T16:20:44;3.60;;;1.80;;
65656;SDS011;57397;50.096;14.404;2023-02-01T16:23:10;3.28;;;1.73;;
65656;SDS011;57397;50.096;14.404;2023-02-01T16:25:36;2.33;;;1.48;;
65656;SDS011;57397;50.096;14.404;2023-02-01T16:28:02;2.80;;;1.60;;
65656;SDS011;57397;50.096;14.404;2023-02-01T16:30:29;2.95;;;1.38;;
65656;SDS011;57397;50.096;14.404;2023-02-01T16:33:01;3.33;;;1.40;;
65656;SDS011;57397;50.096;14.404;2023-02-01T16:35:28;3.67;;;1.88;;
65656;SDS011;57397;50.096;14.404;2023-02-01T16:38:01;4.43;;;1.30;;
65656;SDS011;57397;50.096;14.404;2023-02-01T16:40:38;2.90;;;1.48;;
65656;SDS011;57397;50.096;14.404;2023-02-01T16:45:49;2.58;;;1.40;;
65656;SDS011;57397;50.096;14.404;2023-02-01T16:48:25;3.50;;;1.83;;
65656;SDS011;57397;50.096;14.404;2023-02-01T16:50:53;2.13;;;1.23;;
65656;SDS011;57397;50.096;14.404;2023-02-01T16:53:20;2.78;;;1.52;;
65656;SDS011;57397;50.096;14.404;2023-02-01T16:55:49;3.33;;;1.60;;
65656;SDS011;57397;50.096;14.404;2023-02-01T16:58:17;3.25;;;1.50;;
65656;SDS011;57397;50.096;14.404;2023-02-01T17:00:43;5.28;;;1.90;;
65656;SDS011;57397;50.096;14.404;2023-02-01T17:03:09;3.58;;;2.05;;
65656;SDS011;57397;50.096;14.404;2023-02-01T17:05:42;3.42;;;1.70;;
65656;SDS011;57397;50.096;14.404;2023-02-01T17:08:13;3.10;;;1.60;;
65656;SDS011;57397;50.096;14.404;2023-02-01T17:10:43;3.88;;;1.73;;
65656;SDS011;57397;50.096;14.404;2023-02-01T17:13:11;2.90;;;1.77;;
65656;SDS011;57397;50.096;14.404;2023-02-01T17:15:38;4.03;;;1.80;;
65656;SDS011;57397;50.096;14.404;2023-02-01T17:18:03;2.47;;;1.73;;
65656;SDS011;57397;50.096;14.404;2023-02-01T17:20:30;3.60;;;1.70;;
65656;SDS011;57397;50.096;14.404;2023-02-01T17:22:57;3.15;;;1.70;;
65656;SDS011;57397;50.096;14.404;2023-02-01T17:25:22;3.22;;;1.67;;
65656;SDS011;57397;50.096;14.404;2023-02-01T17:27:50;3.75;;;1.77;;
65656;SDS011;57397;50.096;14.404;2023-02-01T17:30:16;3.28;;;1.70;;
65656;SDS011;57397;50.096;14.404;2023-02-01T17:32:42;2.92;;;1.70;;
65656;SDS011;57397;50.096;14.404;2023-02-01T17:35:18;4.85;;;1.92;;
65656;SDS011;57397;50.096;14.404;2023-02-01T17:37:45;3.90;;;1.80;;
65656;SDS011;57397;50.096;14.404;2023-02-01T17:40:11;3.47;;;1.80;;
65656;SDS011;57397;50.096;14.404;2023-02-01T17:42:37;5.13;;;1.92;;
65656;SDS011;57397;50.096;14.404;2023-02-01T17:48:01;3.25;;;1.67;;